Time;durP1;ratioP1;P1;durP2;ratioP2;P2;SDS_P1;SDS_P2;PMS_P1;PMS_P2;Temp;Humidity;BMP_temperature;BMP_pressure;BME280_temperature;BME280_humidity;BME280_pressure;Samples;Min_cycle;Max_cycle;Signal;HPM_P1;HPM_P2
2024/01/17 00:00:26;;;;;;;25.23;2.13;;;4.20;76.20;;;;;;5072203;28;20241;-87
2024/01/17 00:02:54;;;;;;;1.10;1.00;;;4.20;76.10;;;;;;5067407;28;20260;-87
2024/01/17 00:05:23;;;;;;;2.80;1.93;;;4.20;76.10;;;;;;5069959;28;20229;-87
2024/01/17 00:07:52;;;;;;;1.27;1.17;;;4.20;76.20;;;;;;5070266;28;20647;-86
2024/01/17 00:10:24;;;;;;;2.80;2.07;;;4.20;76.10;;;;;;5067930;28;20198;-87
2024/01/17 00:12:52;;;;;;;0.83;0.83;;;4.20;75.90;;;;;;5068003;28;20195;-87
2024/01/17 00:15:21;;;;;;;0.90;0.90;;;4.20;75.70;;;;;;5068787;28;20224;-85
2024/01/17 00:17:51;;;;;;;0.73;0.73;;;4.20;75.70;;;;;;5064416;28;20197;-85
2024/01/17 00:20:20;;;;;;;1.10;1.00;;;4.20;75.50;;;;;;5067308;28;20186;-86
2024/01/17 00:22:49;;;;;;;1.33;1.23;;;4.30;75.50;;;;;;5069026;28;20205;-86
2024/01/17 00:25:18;;;;;;;0.77;0.77;;;4.30;75.30;;;;;;5069222;28;20241;-86
2024/01/17 00:27:49;;;;;;;2.17;1.53;;;4.30;75.20;;;;;;5065030;28;20203;-86
2024/01/17 00:30:17;;;;;;;0.63;0.63;;;4.30;75.30;;;;;;5060809;28;20221;-86
2024/01/17 00:32:47;;;;;;;0.50;0.50;;;4.30;75.10;;;;;;5067541;28;20234;-86
2024/01/17 00:35:18;;;;;;;1.33;1.27;;;4.30;74.90;;;;;;5065289;28;20451;-86
2024/01/17 00:37:46;;;;;;;1.00;1.00;;;4.30;74.90;;;;;;5070280;28;20206;-86
2024/01/17 00:40:15;;;;;;;0.60;0.60;;;4.30;75.00;;;;;;5069510;28;20922;-86
2024/01/17 00:42:45;;;;;;;0.50;0.50;;;4.30;74.80;;;;;;5062220;28;20645;-86
2024/01/17 00:45:14;;;;;;;0.60;0.60;;;4.30;74.70;;;;;;5066800;28;20229;-84
2024/01/17 00:47:42;;;;;;;0.90;0.90;;;4.30;74.70;;;;;;5069995;28;20202;-86
2024/01/17 00:50:12;;;;;;;1.43;1.17;;;4.30;74.60;;;;;;5065268;28;20187;-86
2024/01/17 00:52:42;;;;;;;2.03;1.50;;;4.30;74.50;;;;;;5071298;28;20567;-86
2024/01/17 00:55:11;;;;;;;1.43;1.00;;;4.20;74.40;;;;;;5069775;28;20195;-86
2024/01/17 00:57:40;;;;;;;1.40;1.30;;;4.20;74.70;;;;;;5069017;28;20281;-87
2024/01/17 01:02:52;;;;;;;0.60;0.60;;;4.20;74.90;;;;;;5058588;28;20226;-87
2024/01/17 01:05:21;;;;;;;3.90;1.33;;;4.10;74.70;;;;;;5064449;28;20232;-87
2024/01/17 01:08:05;;;;;;;1.33;1.27;;;4.10;75.20;;;;;;5064225;28;20196;-87
2024/01/17 01:10:33;;;;;;;1.57;1.47;;;4.00;75.50;;;;;;5066484;28;20197;-87
2024/01/17 01:13:03;;;;;;;0.90;0.90;;;4.00;75.50;;;;;;5065928;28;20204;-87
2024/01/17 01:15:31;;;;;;;0.60;0.60;;;3.90;75.80;;;;;;5063673;28;20199;-86
2024/01/17 01:18:13;;;;;;;1.30;1.20;;;3.90;76.00;;;;;;5064695;28;20555;-87
2024/01/17 01:20:43;;;;;;;0.93;0.93;;;3.80;76.20;;;;;;5071681;28;20198;-87
2024/01/17 01:23:13;;;;;;;3.40;2.07;;;3.80;76.20;;;;;;5066155;28;20611;-88
2024/01/17 01:25:42;;;;;;;2.20;2.00;;;3.80;76.20;;;;;;5071968;28;20217;-87
2024/01/17 01:28:10;;;;;;;1.73;1.03;;;3.70;76.40;;;;;;5066926;28;20215;-86
2024/01/17 01:33:35;;;;;;;3.23;2.10;;;3.70;76.40;;;;;;5065738;28;20279;-86
2024/01/17 01:36:05;;;;;;;0.90;0.90;;;3.70;76.40;;;;;;5069397;28;20274;-86
2024/01/17 01:38:51;;;;;;;0.93;0.93;;;3.70;76.40;;;;;;5071748;28;20194;-87
2024/01/17 01:41:19;;;;;;;0.60;0.60;;;3.70;76.70;;;;;;5065111;28;20205;-87
2024/01/17 01:43:48;;;;;;;1.80;1.50;;;3.60;76.90;;;;;;5059290;28;20198;-87
2024/01/17 01:46:20;;;;;;;2.10;1.90;;;3.60;77.00;;;;;;5070951;28;20223;-87
2024/01/17 01:48:50;;;;;;;2.47;2.27;;;3.50;77.00;;;;;;5067836;28;20185;-87
2024/01/17 01:51:21;;;;;;;1.57;1.47;;;3.50;77.50;;;;;;5068630;28;20197;-87
2024/01/17 01:53:59;;;;;;;1.33;1.23;;;3.50;77.40;;;;;;5062501;28;20196;-87
2024/01/17 01:56:31;;;;;;;1.70;1.60;;;3.50;77.30;;;;;;5073712;28;20208;-87
2024/01/17 01:59:01;;;;;;;2.77;1.20;;;3.40;77.70;;;;;;5067354;28;20206;-87
2024/01/17 02:01:30;;;;;;;2.40;2.10;;;3.40;77.60;;;;;;5069949;28;20213;-87
2024/01/17 02:06:44;;;;;;;1.83;1.67;;;3.40;77.90;;;;;;5070638;28;20232;-87
2024/01/17 02:09:16;;;;;;;1.20;1.13;;;3.30;78.00;;;;;;5068877;28;20193;-86
2024/01/17 02:14:27;;;;;;;1.57;1.47;;;3.30;78.00;;;;;;5069637;28;20195;-86
2024/01/17 02:16:56;;;;;;;0.90;0.90;;;3.20;78.00;;;;;;5073063;28;20238;-87
2024/01/17 02:19:26;;;;;;;1.53;1.37;;;3.20;78.10;;;;;;5066264;28;20212;-87
2024/01/17 02:21:54;;;;;;;1.10;1.00;;;3.20;78.00;;;;;;5071938;28;20721;-87
2024/01/17 02:24:24;;;;;;;1.50;1.40;;;3.20;77.90;;;;;;5072849;28;20204;-87
2024/01/17 02:26:53;;;;;;;0.87;0.87;;;3.20;78.00;;;;;;5074491;28;20218;-87
2024/01/17 02:29:22;;;;;;;1.07;1.07;;;3.20;78.10;;;;;;5072302;28;20281;-87
2024/01/17 02:31:51;;;;;;;3.60;1.83;;;3.10;78.20;;;;;;5071893;28;20201;-87
2024/01/17 02:34:20;;;;;;;1.47;1.37;;;3.10;78.00;;;;;;5069573;28;20207;-87
2024/01/17 02:36:49;;;;;;;1.13;1.13;;;3.10;78.00;;;;;;5066177;28;20204;-86
2024/01/17 02:39:17;;;;;;;1.23;1.13;;;3.10;78.00;;;;;;5074006;28;20216;-86
2024/01/17 02:41:48;;;;;;;1.17;1.17;;;3.10;77.90;;;;;;5074402;28;20285;-87
2024/01/17 02:44:16;;;;;;;1.33;1.10;;;3.10;77.90;;;;;;5067516;28;20199;-87
2024/01/17 02:46:45;;;;;;;1.63;1.53;;;3.00;77.90;;;;;;5064874;28;20219;-86
2024/01/17 02:49:19;;;;;;;1.87;1.77;;;3.00;77.90;;;;;;5066627;28;20201;-86
2024/01/17 02:51:48;;;;;;;1.50;1.40;;;3.00;77.70;;;;;;5072256;28;21679;-86
2024/01/17 02:54:16;;;;;;;0.87;0.87;;;3.00;77.80;;;;;;5068396;28;20200;-86
2024/01/17 02:56:46;;;;;;;1.20;1.10;;;3.00;77.70;;;;;;5073085;28;20214;-86
2024/01/17 02:59:15;;;;;;;3.50;1.63;;;3.00;77.60;;;;;;5071489;28;20205;-86
2024/01/17 03:01:46;;;;;;;1.90;1.50;;;3.00;77.60;;;;;;5064890;28;20306;-87
2024/01/17 03:04:15;;;;;;;1.00;1.00;;;3.00;77.50;;;;;;5069982;28;20184;-86
2024/01/17 03:06:45;;;;;;;2.60;1.83;;;3.00;77.40;;;;;;5070842;28;20280;-86
2024/01/17 03:09:14;;;;;;;4.90;0.90;;;3.10;77.30;;;;;;5064991;28;20672;-85
2024/01/17 03:11:43;;;;;;;2.23;1.83;;;3.10;77.40;;;;;;5068052;28;20200;-85
2024/01/17 03:14:13;;;;;;;0.97;0.97;;;3.10;77.30;;;;;;5067329;28;20652;-86
2024/01/17 03:16:41;;;;;;;1.07;1.00;;;3.10;77.20;;;;;;5073602;28;20771;-85
2024/01/17 03:19:10;;;;;;;11.47;2.47;;;3.10;77.10;;;;;;5070820;28;20196;-85
2024/01/17 03:21:46;;;;;;;0.43;0.43;;;3.10;77.10;;;;;;5075609;28;20202;-86
2024/01/17 03:24:14;;;;;;;3.70;2.20;;;3.10;77.10;;;;;;5070465;28;20186;-85
2024/01/17 03:26:43;;;;;;;1.03;1.03;;;3.10;77.10;;;;;;5073577;28;20361;-85
2024/01/17 03:29:13;;;;;;;4.27;1.13;;;3.00;77.00;;;;;;5069670;28;20193;-85
2024/01/17 03:31:42;;;;;;;1.00;1.00;;;3.00;77.00;;;;;;5065058;28;20197;-85
2024/01/17 03:34:10;;;;;;;0.70;0.70;;;3.00;77.70;;;;;;5068206;28;20240;-85
2024/01/17 03:36:42;;;;;;;1.43;1.33;;;3.10;76.90;;;;;;5065079;28;20312;-85
2024/01/17 03:39:10;;;;;;;1.60;1.50;;;3.10;76.70;;;;;;5067472;28;20194;-85
2024/01/17 03:41:39;;;;;;;0.80;0.80;;;3.10;76.60;;;;;;5073073;28;20200;-85
2024/01/17 03:44:07;;;;;;;1.73;1.63;;;3.10;76.60;;;;;;5066423;28;20227;-85
2024/01/17 03:46:40;;;;;;;0.73;0.73;;;3.10;76.60;;;;;;5071722;28;20262;-85
2024/01/17 03:49:09;;;;;;;0.60;0.60;;;3.10;76.50;;;;;;5066510;28;20199;-85
2024/01/17 03:51:38;;;;;;;3.03;2.20;;;3.10;76.40;;;;;;5073720;28;20207;-85
2024/01/17 03:54:08;;;;;;;1.33;1.03;;;3.10;76.30;;;;;;5066528;28;20266;-84
2024/01/17 03:56:36;;;;;;;1.80;1.17;;;3.10;76.30;;;;;;5068323;28;20625;-85
2024/01/17 03:59:06;;;;;;;1.13;0.83;;;3.10;76.00;;;;;;5070445;28;20578;-85
2024/01/17 04:01:41;;;;;;;0.60;0.60;;;3.10;76.10;;;;;;5062379;28;20619;-84
2024/01/17 04:04:10;;;;;;;2.20;1.43;;;3.10;75.90;;;;;;5065538;28;20292;-84
2024/01/17 04:06:39;;;;;;;0.97;0.97;;;3.10;75.70;;;;;;5067535;28;20203;-84
2024/01/17 04:09:08;;;;;;;0.90;0.90;;;3.10;75.70;;;;;;5063695;28;20193;-84
2024/01/17 04:11:37;;;;;;;0.63;0.63;;;3.10;75.70;;;;;;5067125;28;20196;-84
2024/01/17 04:16:49;;;;;;;3.90;0.80;;;3.10;75.70;;;;;;5061867;28;20206;-84
2024/01/17 04:19:18;;;;;;;0.80;0.80;;;3.10;75.60;;;;;;5061965;28;20202;-85
2024/01/17 04:21:46;;;;;;;1.27;1.23;;;3.10;75.40;;;;;;5062770;28;20204;-84
2024/01/17 04:24:15;;;;;;;1.03;1.00;;;3.10;75.40;;;;;;5061846;28;20207;-84
2024/01/17 04:29:26;;;;;;;0.97;0.97;;;3.10;75.30;;;;;;5063216;28;20713;-84
2024/01/17 04:31:58;;;;;;;2.67;2.07;;;3.10;75.70;;;;;;5064591;28;20291;-84
2024/01/17 04:34:26;;;;;;;3.20;1.40;;;3.10;75.40;;;;;;5064543;28;20206;-84
2024/01/17 04:36:55;;;;;;;1.90;1.43;;;3.10;75.30;;;;;;5070010;28;20620;-85
2024/01/17 04:39:24;;;;;;;1.40;1.30;;;3.10;75.20;;;;;;5064181;28;20667;-86
2024/01/17 04:41:53;;;;;;;3.13;2.73;;;3.10;75.10;;;;;;5069228;28;20200;-85
2024/01/17 04:44:21;;;;;;;1.13;1.03;;;3.10;75.00;;;;;;5062519;28;20199;-84
2024/01/17 04:46:50;;;;;;;2.60;2.13;;;3.10;74.90;;;;;;5062439;28;20215;-84
2024/01/17 04:49:20;;;;;;;1.03;1.03;;;3.10;74.80;;;;;;5064062;28;20196;-85
2024/01/17 04:51:50;;;;;;;0.93;0.90;;;3.10;74.80;;;;;;5059813;28;20200;-84
2024/01/17 04:54:19;;;;;;;0.93;0.90;;;3.00;74.60;;;;;;5058874;28;20712;-84
2024/01/17 04:56:47;;;;;;;1.10;1.10;;;3.00;74.50;;;;;;5060343;28;20247;-84
2024/01/17 04:59:16;;;;;;;3.27;2.30;;;3.00;74.50;;;;;;5057957;28;20191;-84
2024/01/17 05:01:45;;;;;;;3.30;2.17;;;3.00;74.50;;;;;;5056103;28;20226;-84
2024/01/17 05:04:13;;;;;;;1.80;1.07;;;3.00;74.50;;;;;;5059377;28;20204;-83
2024/01/17 05:06:43;;;;;;;1.50;1.40;;;2.90;74.40;;;;;;5063346;28;20710;-83
2024/01/17 05:09:12;;;;;;;1.27;1.23;;;2.90;74.30;;;;;;5064491;28;20227;-83
2024/01/17 05:11:41;;;;;;;1.43;1.33;;;2.90;74.30;;;;;;5056241;28;20192;-82
2024/01/17 05:14:09;;;;;;;1.67;1.57;;;2.90;74.20;;;;;;5058894;28;20200;-84
2024/01/17 05:16:38;;;;;;;2.35;2.17;;;2.90;74.40;;;;;;5063441;28;20839;-82
2024/01/17 05:19:07;;;;;;;2.77;2.47;;;2.90;74.40;;;;;;5060874;28;20280;-83
2024/01/17 05:21:36;;;;;;;7.00;1.90;;;2.90;74.50;;;;;;5068851;28;20691;-83
2024/01/17 05:24:09;;;;;;;3.03;2.23;;;2.80;74.30;;;;;;5062044;28;20496;-84
2024/01/17 05:26:38;;;;;;;1.97;1.87;;;2.80;74.30;;;;;;5066869;28;20226;-79
2024/01/17 05:29:07;;;;;;;2.43;2.27;;;2.80;74.20;;;;;;5058981;28;20227;-82
2024/01/17 05:31:36;;;;;;;1.87;1.70;;;2.80;74.20;;;;;;5060382;28;20215;-82
2024/01/17 05:34:05;;;;;;;3.37;1.90;;;2.80;74.10;;;;;;5057515;28;20500;-84
2024/01/17 05:36:34;;;;;;;2.30;2.20;;;2.80;74.10;;;;;;5065340;28;20648;-83
2024/01/17 05:39:03;;;;;;;1.93;1.57;;;2.80;74.10;;;;;;5065762;28;20718;-83
2024/01/17 05:41:33;;;;;;;1.90;1.80;;;2.80;74.00;;;;;;5060568;28;20208;-85
2024/01/17 05:46:44;;;;;;;2.97;2.43;;;2.80;74.00;;;;;;5064887;28;20199;-83
2024/01/17 05:49:12;;;;;;;7.10;2.17;;;2.80;74.00;;;;;;5068367;28;20229;-86
2024/01/17 05:51:40;;;;;;;1.70;1.60;;;2.70;74.00;;;;;;5068629;28;20199;-83
2024/01/17 05:54:09;;;;;;;1.63;1.53;;;2.70;74.00;;;;;;5065737;28;20199;-84
2024/01/17 05:56:39;;;;;;;1.00;1.00;;;2.80;74.00;;;;;;5069349;28;20259;-82
2024/01/17 06:02:04;;;;;;;3.70;2.40;;;2.70;74.10;;;;;;5066949;28;20380;-81
2024/01/17 06:04:33;;;;;;;1.77;1.67;;;2.70;74.10;;;;;;5064085;28;20214;-81
2024/01/17 06:07:01;;;;;;;3.00;1.93;;;2.70;74.10;;;;;;5068877;28;20198;-81
2024/01/17 06:12:28;;;;;;;6.23;2.60;;;2.80;74.30;;;;;;5067407;28;20207;-85
2024/01/17 06:14:57;;;;;;;3.50;2.30;;;2.80;74.30;;;;;;5058866;28;20268;-82
2024/01/17 06:17:25;;;;;;;2.37;2.17;;;2.80;74.40;;;;;;5066610;28;20644;-82
2024/01/17 06:19:54;;;;;;;2.30;2.10;;;2.80;74.30;;;;;;5065414;28;20210;-83
2024/01/17 06:22:23;;;;;;;2.83;1.83;;;2.80;74.40;;;;;;5067696;28;20209;-81
2024/01/17 06:24:51;;;;;;;4.17;2.40;;;2.80;74.40;;;;;;5063801;28;20203;-82
2024/01/17 06:27:20;;;;;;;3.63;3.33;;;2.80;74.60;;;;;;5060112;28;20200;-83
2024/01/17 06:29:51;;;;;;;1.80;1.70;;;2.80;74.70;;;;;;5061455;28;20262;-82
2024/01/17 06:35:02;;;;;;;1.90;1.80;;;2.90;74.80;;;;;;5060626;28;20194;-81
2024/01/17 06:43:22;;;;;;;5.70;2.83;;;3.00;75.10;;;;;;5061538;28;20273;-82
2024/01/17 06:45:52;;;;;;;2.07;1.27;;;3.10;75.20;;;;;;5058699;28;20275;-81
2024/01/17 06:51:30;;;;;;;3.37;3.13;;;3.20;75.30;;;;;;5069074;28;20297;-83
2024/01/17 06:56:41;;;;;;;2.00;1.90;;;3.30;75.40;;;;;;5062198;28;20200;-81
2024/01/17 06:59:10;;;;;;;1.63;1.53;;;3.40;75.50;;;;;;5070598;28;20241;-81
2024/01/17 07:01:55;;;;;;;3.37;2.63;;;3.50;75.70;;;;;;5069443;28;20592;-80
2024/01/17 07:07:06;;;;;;;2.00;1.77;;;3.60;75.80;;;;;;5065683;28;20295;-80
2024/01/17 07:12:17;;;;;;;2.50;2.33;;;3.80;75.90;;;;;;5068492;28;20204;-80
2024/01/17 07:14:48;;;;;;;1.47;1.40;;;3.90;75.80;;;;;;5068807;28;20246;-79
2024/01/17 07:17:18;;;;;;;3.63;3.33;;;3.90;76.10;;;;;;5070670;28;20204;-80
2024/01/17 07:19:46;;;;;;;1.57;1.47;;;3.90;75.90;;;;;;5062532;28;20198;-80
2024/01/17 07:22:15;;;;;;;2.77;2.57;;;4.00;76.60;;;;;;5066522;28;20193;-80
2024/01/17 07:24:45;;;;;;;2.50;2.23;;;4.10;75.90;;;;;;5062726;28;20212;-80
2024/01/17 07:27:14;;;;;;;3.80;2.33;;;4.10;75.80;;;;;;5068968;28;20567;-81
2024/01/17 07:29:43;;;;;;;6.43;2.73;;;4.20;75.60;;;;;;5069820;28;20287;-81
2024/01/17 07:32:27;;;;;;;18.20;5.07;;;4.30;75.50;;;;;;5059296;28;20205;-79
2024/01/17 07:37:38;;;;;;;4.37;3.17;;;4.40;75.40;;;;;;5066287;28;20194;-79
2024/01/17 07:40:09;;;;;;;2.43;2.23;;;4.50;75.30;;;;;;5064350;28;20546;-79
2024/01/17 07:42:53;;;;;;;1.83;1.63;;;4.50;75.50;;;;;;5064707;28;20226;-79
2024/01/17 07:45:35;;;;;;;3.83;2.73;;;4.60;75.10;;;;;;5062378;28;20283;-79
2024/01/17 07:50:48;;;;;;;2.40;2.30;;;4.70;75.20;;;;;;5063071;28;20190;-80
2024/01/17 07:56:13;;;;;;;3.00;2.53;;;4.90;75.20;;;;;;5068822;28;20194;-80
2024/01/17 07:58:41;;;;;;;3.27;2.97;;;4.90;75.30;;;;;;5063178;28;20685;-80
2024/01/17 08:01:10;;;;;;;8.13;4.03;;;5.00;75.10;;;;;;5057014;28;20235;-80
2024/01/17 08:03:40;;;;;;;5.20;3.93;;;5.10;75.20;;;;;;5068589;28;20218;-79
2024/01/17 08:06:09;;;;;;;2.67;2.47;;;5.10;75.20;;;;;;5067087;28;20897;-81
2024/01/17 08:11:20;;;;;;;5.90;4.37;;;5.30;75.00;;;;;;5064176;28;20210;-79
2024/01/17 08:14:02;;;;;;;2.30;2.00;;;5.30;74.50;;;;;;5061168;28;20202;-80
2024/01/17 08:16:31;;;;;;;4.03;2.53;;;5.40;74.00;;;;;;5061495;28;20203;-79
2024/01/17 08:19:01;;;;;;;4.20;2.63;;;5.50;74.00;;;;;;5061062;28;20210;-80
2024/01/17 08:21:30;;;;;;;2.20;2.03;;;5.60;74.00;;;;;;5060783;28;20372;-81
2024/01/17 08:26:54;;;;;;;10.43;3.17;;;5.70;73.90;;;;;;5065031;28;20385;-80
2024/01/17 08:32:06;;;;;;;5.10;4.03;;;5.90;73.60;;;;;;5064869;28;20229;-80
2024/01/17 08:34:50;;;;;;;1.13;1.03;;;6.00;73.40;;;;;;5063478;28;20191;-80
2024/01/17 08:37:19;;;;;;;4.37;2.60;;;6.10;73.20;;;;;;5068585;28;20610;-80
2024/01/17 08:40:01;;;;;;;2.03;1.90;;;6.20;73.30;;;;;;5068251;28;20204;-80
2024/01/17 08:42:29;;;;;;;5.67;3.17;;;6.20;72.60;;;;;;5068795;28;20216;-81
2024/01/17 08:44:58;;;;;;;3.30;3.00;;;6.30;73.20;;;;;;5067801;28;20204;-80
2024/01/17 08:47:26;;;;;;;2.10;1.90;;;6.40;72.60;;;;;;5063758;28;20197;-80
2024/01/17 08:49:57;;;;;;;4.00;2.50;;;6.50;72.60;;;;;;5061158;28;20225;-80
2024/01/17 08:52:26;;;;;;;4.03;2.50;;;6.60;72.60;;;;;;5062449;28;20261;-79
2024/01/17 08:54:55;;;;;;;8.13;2.60;;;6.70;72.30;;;;;;5060653;28;20555;-80
2024/01/17 08:57:23;;;;;;;10.50;2.63;;;6.80;72.30;;;;;;5063489;28;20198;-80
2024/01/17 08:59:52;;;;;;;3.57;1.90;;;6.90;72.40;;;;;;5062538;28;20674;-80
2024/01/17 09:05:20;;;;;;;3.03;2.37;;;7.10;71.10;;;;;;5062981;28;20256;-80
2024/01/17 09:07:49;;;;;;;4.20;1.63;;;7.20;70.80;;;;;;5068309;28;20251;-79
2024/01/17 09:10:18;;;;;;;7.37;2.07;;;7.30;70.80;;;;;;5065847;28;20225;-81
2024/01/17 09:12:47;;;;;;;2.27;2.07;;;7.40;70.50;;;;;;5065092;28;20191;-81
2024/01/17 09:15:15;;;;;;;1.83;1.73;;;7.40;70.50;;;;;;5061281;28;20648;-82
2024/01/17 09:21:09;;;;;;;4.20;2.83;;;7.50;69.60;;;;;;5064691;28;20194;-82
2024/01/17 09:23:39;;;;;;;5.67;3.23;;;7.50;68.80;;;;;;5068886;28;20198;-81
2024/01/17 09:26:08;;;;;;;3.17;2.77;;;7.50;68.30;;;;;;5063354;28;20634;-81
2024/01/17 09:28:36;;;;;;;3.03;2.43;;;7.60;68.30;;;;;;5067561;28;20190;-81
2024/01/17 09:31:05;;;;;;;2.30;1.57;;;7.60;68.20;;;;;;5061665;28;20222;-80
2024/01/17 09:33:35;;;;;;;1.53;1.43;;;7.60;67.80;;;;;;5063067;28;20208;-82
2024/01/17 09:36:05;;;;;;;3.47;3.13;;;7.60;67.00;;;;;;5060001;28;20668;-80
2024/01/17 09:41:32;;;;;;;5.13;4.20;;;7.70;67.30;;;;;;5068508;28;20531;-81
2024/01/17 09:44:02;;;;;;;2.97;2.50;;;7.70;67.20;;;;;;5062029;28;20213;-80
2024/01/17 09:46:35;;;;;;;2.90;2.70;;;7.80;67.60;;;;;;5066446;28;20197;-80
2024/01/17 09:49:04;;;;;;;5.60;2.00;;;7.90;67.70;;;;;;5065247;28;20194;-80
2024/01/17 09:51:33;;;;;;;3.40;2.47;;;7.90;67.90;;;;;;5062594;28;20198;-79
2024/01/17 09:54:05;;;;;;;4.43;2.57;;;8.00;68.00;;;;;;5064554;28;20281;-80
2024/01/17 09:56:36;;;;;;;3.73;2.27;;;8.00;67.40;;;;;;5061781;28;20298;-80
2024/01/17 09:59:13;;;;;;;5.37;2.57;;;8.10;67.60;;;;;;5059170;28;20244;-79
2024/01/17 10:01:44;;;;;;;7.83;2.63;;;8.20;67.30;;;;;;5054676;28;20218;-79
2024/01/17 10:04:14;;;;;;;5.70;2.13;;;8.30;67.00;;;;;;5060764;28;20753;-79
2024/01/17 10:06:44;;;;;;;4.20;2.53;;;8.30;66.40;;;;;;5069048;28;20194;-81
2024/01/17 10:09:30;;;;;;;9.33;4.07;;;8.40;66.00;;;;;;5054494;28;20678;-80
2024/01/17 10:11:59;;;;;;;1.87;1.77;;;8.50;65.90;;;;;;5065810;28;20269;-81
2024/01/17 10:14:27;;;;;;;1.43;1.07;;;8.60;65.60;;;;;;5059675;28;20204;-80
2024/01/17 10:16:57;;;;;;;2.73;2.50;;;8.60;65.50;;;;;;5061590;28;20206;-78
2024/01/17 10:19:26;;;;;;;1.97;1.70;;;8.70;65.80;;;;;;5059261;28;20195;-80
2024/01/17 10:24:53;;;;;;;1.43;1.33;;;8.90;65.20;;;;;;5066591;28;20194;-81
2024/01/17 10:30:20;;;;;;;5.73;2.47;;;9.10;64.30;;;;;;5064672;28;20259;-82
2024/01/17 10:32:49;;;;;;;2.17;1.97;;;9.20;64.30;;;;;;5070525;28;20218;-81
2024/01/17 10:35:19;;;;;;;2.27;1.87;;;9.20;64.30;;;;;;5067789;28;20265;-82
2024/01/17 10:37:52;;;;;;;8.57;2.07;;;9.20;63.00;;;;;;5069080;28;20205;-82
2024/01/17 10:41:03;;;;;;;9.97;3.97;;;9.20;62.80;;;;;;5069336;28;20216;-81
2024/01/17 10:43:31;;;;;;;2.93;2.27;;;9.20;61.90;;;;;;5062902;28;20578;-81
2024/01/17 10:46:03;;;;;;;2.00;1.30;;;9.30;61.30;;;;;;5068081;28;20195;-81
2024/01/17 10:48:32;;;;;;;5.23;1.93;;;9.40;61.90;;;;;;5071055;28;20262;-81
2024/01/17 10:51:02;;;;;;;3.50;1.67;;;9.50;62.20;;;;;;5071061;28;20653;-82
2024/01/17 10:53:32;;;;;;;1.30;1.20;;;9.60;61.60;;;;;;5067829;28;20188;-80
2024/01/17 10:56:21;;;;;;;3.90;1.70;;;9.60;61.90;;;;;;5070821;28;20754;-80
2024/01/17 10:58:51;;;;;;;2.23;2.13;;;9.70;60.60;;;;;;5070100;28;20664;-80
2024/01/17 11:01:25;;;;;;;2.27;1.70;;;9.70;60.40;;;;;;5071730;28;20222;-81
2024/01/17 11:03:58;;;;;;;0.73;0.73;;;9.80;61.00;;;;;;5069416;28;20248;-80
2024/01/17 11:09:11;;;;;;;4.60;2.17;;;9.80;60.90;;;;;;5065245;28;20201;-80
2024/01/17 11:11:42;;;;;;;1.07;1.00;;;9.80;60.20;;;;;;5070798;28;20311;-80
2024/01/17 11:14:12;;;;;;;9.83;1.60;;;9.80;60.00;;;;;;5068904;28;20217;-83
2024/01/17 11:19:34;;;;;;;1.60;1.50;;;9.90;59.70;;;;;;5066243;28;20194;-82
2024/01/17 11:22:05;;;;;;;4.37;1.50;;;9.90;60.00;;;;;;5064911;28;20199;-80
2024/01/17 11:25:12;;;;;;;3.37;1.27;;;10.00;60.40;;;;;;5062957;28;20201;-82
2024/01/17 11:28:16;;;;;;;9.03;2.77;;;10.00;60.40;;;;;;5064574;28;20206;-82
2024/01/17 11:31:11;;;;;;;4.30;2.10;;;10.10;60.00;;;;;;5063494;28;20221;-82
2024/01/17 11:33:54;;;;;;;1.57;1.47;;;10.20;58.80;;;;;;5067847;28;20206;-82
2024/01/17 11:36:44;;;;;;;2.53;1.07;;;10.20;59.40;;;;;;5060983;28;20293;-82
2024/01/17 11:39:14;;;;;;;1.13;1.03;;;10.30;59.20;;;;;;5065448;28;20201;-82
2024/01/17 11:41:44;;;;;;;5.27;2.07;;;10.30;58.10;;;;;;5062710;28;22622;-82
2024/01/17 11:44:29;;;;;;;0.70;0.70;;;10.40;58.20;;;;;;5068814;28;20205;-83
2024/01/17 11:46:57;;;;;;;2.57;1.37;;;10.40;57.80;;;;;;5067233;28;20465;-80
2024/01/17 11:49:40;;;;;;;2.10;1.53;;;10.40;57.60;;;;;;5067739;28;20187;-80
2024/01/17 11:52:25;;;;;;;3.57;1.50;;;10.40;58.30;;;;;;5065698;28;20309;-81
2024/01/17 11:57:50;;;;;;;1.87;1.53;;;10.50;57.70;;;;;;5068380;28;20198;-80
2024/01/17 12:00:22;;;;;;;1.10;1.03;;;10.60;57.60;;;;;;5066403;28;20296;-80
2024/01/17 12:02:51;;;;;;;2.23;1.23;;;10.60;57.80;;;;;;5065752;28;20222;-80
2024/01/17 12:05:20;;;;;;;4.00;2.20;;;10.60;58.20;;;;;;5067443;28;20198;-79
2024/01/17 12:07:49;;;;;;;4.20;0.93;;;10.60;57.50;;;;;;5063442;28;20210;-79
2024/01/17 12:10:19;;;;;;;1.57;1.47;;;10.60;57.80;;;;;;5067525;28;20593;-79
2024/01/17 12:12:49;;;;;;;1.47;1.27;;;10.60;57.90;;;;;;5061791;28;20206;-80
2024/01/17 12:15:19;;;;;;;0.90;0.90;;;10.60;57.80;;;;;;5065848;28;20653;-80
2024/01/17 12:17:49;;;;;;;1.50;1.10;;;10.60;57.20;;;;;;5061943;28;20194;-79
2024/01/17 12:20:19;;;;;;;2.67;1.27;;;10.60;56.10;;;;;;5062919;28;20215;-79
2024/01/17 12:22:50;;;;;;;2.03;1.67;;;10.60;55.90;;;;;;5069441;28;20191;-80
2024/01/17 12:25:20;;;;;;;3.20;2.00;;;10.50;55.20;;;;;;5068238;28;20575;-79
2024/01/17 12:27:54;;;;;;;1.33;1.23;;;10.50;55.60;;;;;;5066920;28;20285;-79
2024/01/17 12:30:23;;;;;;;1.33;1.23;;;10.50;56.30;;;;;;5063973;28;20569;-79
2024/01/17 12:32:53;;;;;;;2.10;1.47;;;10.50;56.30;;;;;;5063773;28;20289;-80
2024/01/17 12:35:21;;;;;;;1.13;1.03;;;10.60;55.40;;;;;;5061554;28;20191;-80
2024/01/17 12:37:50;;;;;;;0.93;0.93;;;10.60;55.70;;;;;;5065926;28;20195;-80
2024/01/17 12:40:19;;;;;;;1.30;0.60;;;10.70;56.10;;;;;;5062179;28;20203;-80
2024/01/17 12:42:49;;;;;;;1.27;1.17;;;10.70;56.50;;;;;;5065875;28;20203;-80
2024/01/17 12:45:18;;;;;;;1.17;1.10;;;10.80;56.80;;;;;;5065820;28;20202;-80
2024/01/17 12:47:53;;;;;;;0.30;0.30;;;10.80;56.50;;;;;;5064423;28;20206;-81
2024/01/17 12:50:23;;;;;;;2.97;1.63;;;10.80;55.30;;;;;;5059076;28;20222;-80
2024/01/17 12:52:51;;;;;;;3.30;1.63;;;10.80;56.70;;;;;;5063371;28;20236;-79
2024/01/17 12:55:22;;;;;;;1.97;1.30;;;10.80;56.30;;;;;;5065654;28;20342;-80
2024/01/17 12:57:51;;;;;;;0.93;0.90;;;10.80;56.30;;;;;;5062478;28;20241;-80
2024/01/17 13:00:24;;;;;;;0.40;0.40;;;10.80;55.70;;;;;;5067920;28;20198;-80
2024/01/17 13:02:55;;;;;;;0.57;0.57;;;10.80;55.40;;;;;;5063570;28;20242;-80
2024/01/17 13:05:24;;;;;;;1.20;1.10;;;10.80;55.40;;;;;;5065200;28;20209;-80
2024/01/17 13:07:52;;;;;;;0.60;0.60;;;10.80;55.40;;;;;;5063418;28;20201;-81
2024/01/17 13:10:22;;;;;;;0.90;0.90;;;10.80;55.70;;;;;;5067449;28;20217;-81
2024/01/17 13:12:55;;;;;;;5.70;1.53;;;10.80;55.80;;;;;;5064361;28;20605;-81
2024/01/17 13:15:24;;;;;;;0.80;0.80;;;10.80;55.50;;;;;;5059389;28;20229;-81
2024/01/17 13:17:56;;;;;;;4.30;2.10;;;10.80;55.70;;;;;;5070674;28;20248;-81
2024/01/17 13:20:27;;;;;;;1.47;1.37;;;10.80;55.70;;;;;;5068034;28;20329;-81
2024/01/17 13:22:56;;;;;;;1.60;1.50;;;10.80;56.60;;;;;;5064326;28;20206;-81
2024/01/17 13:25:25;;;;;;;1.30;1.07;;;10.80;55.20;;;;;;5058927;28;20293;-79
2024/01/17 13:27:59;;;;;;;1.77;1.50;;;10.70;55.10;;;;;;5061407;28;20233;-80
2024/01/17 13:30:28;;;;;;;2.67;1.77;;;10.70;54.90;;;;;;5063938;28;20209;-79
2024/01/17 13:32:59;;;;;;;2.30;1.43;;;10.70;55.40;;;;;;5063043;28;20651;-80
2024/01/17 13:35:28;;;;;;;1.03;0.90;;;10.70;55.40;;;;;;5062116;28;20220;-80
2024/01/17 13:37:57;;;;;;;1.20;1.10;;;10.70;55.70;;;;;;5066716;28;20225;-80
2024/01/17 13:40:27;;;;;;;0.60;0.60;;;10.70;55.90;;;;;;5065622;28;20203;-80
2024/01/17 13:42:57;;;;;;;0.60;0.60;;;10.70;56.10;;;;;;5054562;28;20191;-81
2024/01/17 13:45:26;;;;;;;1.53;1.07;;;10.60;56.10;;;;;;5063816;28;20229;-81
2024/01/17 13:47:57;;;;;;;3.07;2.50;;;10.60;56.00;;;;;;5065707;28;20197;-81
2024/01/17 13:50:27;;;;;;;2.23;1.57;;;10.60;55.70;;;;;;5065587;28;20203;-81
2024/01/17 13:53:08;;;;;;;1.90;1.07;;;10.60;55.70;;;;;;5065987;28;20221;-81
2024/01/17 13:55:36;;;;;;;1.33;1.23;;;10.60;56.00;;;;;;5057125;28;20198;-81
2024/01/17 13:58:05;;;;;;;1.33;1.23;;;10.60;56.10;;;;;;5061164;28;20677;-81
2024/01/17 14:00:38;;;;;;;1.23;1.13;;;10.60;56.00;;;;;;5061823;28;20203;-81
2024/01/17 14:03:08;;;;;;;0.60;0.60;;;10.60;55.60;;;;;;5070000;28;20280;-80
2024/01/17 14:05:38;;;;;;;2.90;1.33;;;10.50;56.00;;;;;;5071419;28;20198;-81
2024/01/17 14:08:07;;;;;;;1.33;1.23;;;10.60;56.10;;;;;;5065680;28;20509;-80
2024/01/17 14:10:35;;;;;;;1.93;1.80;;;10.50;56.20;;;;;;5060732;28;20201;-81
2024/01/17 14:13:04;;;;;;;1.07;0.90;;;10.50;56.00;;;;;;5059912;28;20710;-82
2024/01/17 14:15:33;;;;;;;4.53;1.43;;;10.50;55.90;;;;;;5067885;28;20197;-81
2024/01/17 14:18:04;;;;;;;3.83;3.53;;;10.50;56.00;;;;;;5070175;28;20232;-80
2024/01/17 14:20:32;;;;;;;2.43;1.70;;;10.50;55.90;;;;;;5063636;28;20545;-80
2024/01/17 14:23:18;;;;;;;2.00;1.53;;;10.50;55.70;;;;;;5066386;28;20572;-82
2024/01/17 14:25:46;;;;;;;1.77;1.63;;;10.40;55.50;;;;;;5063366;28;20191;-81
2024/01/17 14:30:57;;;;;;;3.13;1.47;;;10.30;55.80;;;;;;5066461;28;20220;-80
2024/01/17 14:33:25;;;;;;;5.17;2.83;;;10.30;55.60;;;;;;5069208;28;20227;-81
2024/01/17 14:35:54;;;;;;;1.33;1.23;;;10.30;55.40;;;;;;5068030;28;20198;-80
2024/01/17 14:38:24;;;;;;;1.30;1.20;;;10.30;55.80;;;;;;5079255;28;20289;-79
2024/01/17 14:40:53;;;;;;;1.53;1.43;;;10.30;56.00;;;;;;5068191;28;20203;-80